sensor_id;sensor_type;location;lat;lon;timestamp;P1;durP1;ratioP1;P2;durP2;ratioP2
6282;SDS011;3174;53.486;9.568;2022-12-17T00:02:23;22.33;;;11.50;;
6282;SDS011;3174;53.486;9.568;2022-12-17T00:05:09;20.57;;;11.10;;
6282;SDS011;3174;53.486;9.568;2022-12-17T00:07:57;23.27;;;11.47;;
6282;SDS011;3174;53.486;9.568;2022-12-17T00:10:42;28.50;;;11.37;;
6282;SDS011;3174;53.486;9.568;2022-12-17T00:13:28;18.80;;;10.63;;
6282;SDS011;3174;53.486;9.568;2022-12-17T00:16:13;28.13;;;13.33;;
6282;SDS011;3174;53.486;9.568;2022-12-17T00:19:01;33.10;;;13.33;;
6282;SDS011;3174;53.486;9.568;2022-12-17T00:21:47;21.13;;;10.60;;
6282;SDS011;3174;53.486;9.568;2022-12-17T00:24:32;23.57;;;12.17;;
6282;SDS011;3174;53.486;9.568;2022-12-17T00:27:21;25.33;;;11.77;;
6282;SDS011;3174;53.486;9.568;2022-12-17T00:30:12;19.10;;;9.83;;
6282;SDS011;3174;53.486;9.568;2022-12-17T00:32:57;25.10;;;11.20;;
6282;SDS011;3174;53.486;9.568;2022-12-17T00:35:44;20.43;;;10.60;;
6282;SDS011;3174;53.486;9.568;2022-12-17T00:38:35;26.30;;;11.87;;
6282;SDS011;3174;53.486;9.568;2022-12-17T00:41:21;27.20;;;13.90;;
6282;SDS011;3174;53.486;9.568;2022-12-17T00:44:15;25.30;;;11.73;;
6282;SDS011;3174;53.486;9.568;2022-12-17T00:47:01;22.10;;;11.17;;
6282;SDS011;3174;53.486;9.568;2022-12-17T00:49:46;21.70;;;10.50;;
6282;SDS011;3174;53.486;9.568;2022-12-17T00:52:33;20.77;;;10.63;;
6282;SDS011;3174;53.486;9.568;2022-12-17T00:55:21;25.23;;;10.80;;
6282;SDS011;3174;53.486;9.568;2022-12-17T00:58:06;20.27;;;9.63;;
6282;SDS011;3174;53.486;9.568;2022-12-17T01:00:56;23.93;;;11.70;;
6282;SDS011;3174;53.486;9.568;2022-12-17T01:03:42;26.23;;;11.90;;
6282;SDS011;3174;53.486;9.568;2022-12-17T01:06:27;31.20;;;11.23;;
6282;SDS011;3174;53.486;9.568;2022-12-17T01:09:14;18.63;;;10.00;;
6282;SDS011;3174;53.486;9.568;2022-12-17T01:11:59;21.83;;;10.23;;
6282;SDS011;3174;53.486;9.568;2022-12-17T01:14:45;24.27;;;10.17;;
6282;SDS011;3174;53.486;9.568;2022-12-17T01:17:30;22.13;;;9.73;;
6282;SDS011;3174;53.486;9.568;2022-12-17T01:20:15;18.33;;;10.00;;
6282;SDS011;3174;53.486;9.568;2022-12-17T01:23:01;23.50;;;12.53;;
6282;SDS011;3174;53.486;9.568;2022-12-17T01:25:52;24.67;;;11.40;;
6282;SDS011;3174;53.486;9.568;2022-12-17T01:28:34;24.37;;;10.80;;
6282;SDS011;3174;53.486;9.568;2022-12-17T01:31:34;21.17;;;9.33;;
6282;SDS011;3174;53.486;9.568;2022-12-17T01:34:20;19.27;;;9.53;;
6282;SDS011;3174;53.486;9.568;2022-12-17T01:37:05;18.63;;;9.77;;
6282;SDS011;3174;53.486;9.568;2022-12-17T01:39:51;23.50;;;11.40;;
6282;SDS011;3174;53.486;9.568;2022-12-17T01:42:38;20.67;;;10.97;;
6282;SDS011;3174;53.486;9.568;2022-12-17T01:45:24;21.30;;;10.43;;
6282;SDS011;3174;53.486;9.568;2022-12-17T01:48:12;20.77;;;9.73;;
6282;SDS011;3174;53.486;9.568;2022-12-17T01:50:59;21.37;;;11.30;;
6282;SDS011;3174;53.486;9.568;2022-12-17T01:53:45;21.60;;;9.60;;
6282;SDS011;3174;53.486;9.568;2022-12-17T01:56:33;19.83;;;9.70;;
6282;SDS011;3174;53.486;9.568;2022-12-17T01:59:23;20.53;;;10.00;;
6282;SDS011;3174;53.486;9.568;2022-12-17T02:02:24;19.73;;;9.47;;
6282;SDS011;3174;53.486;9.568;2022-12-17T02:05:10;18.30;;;9.53;;
6282;SDS011;3174;53.486;9.568;2022-12-17T02:07:58;26.57;;;11.07;;
6282;SDS011;3174;53.486;9.568;2022-12-17T02:10:48;20.50;;;10.07;;
6282;SDS011;3174;53.486;9.568;2022-12-17T02:13:38;17.83;;;9.23;;
6282;SDS011;3174;53.486;9.568;2022-12-17T02:16:29;21.67;;;11.50;;
6282;SDS011;3174;53.486;9.568;2022-12-17T02:19:22;16.20;;;9.50;;
6282;SDS011;3174;53.486;9.568;2022-12-17T02:22:13;19.97;;;10.10;;
6282;SDS011;3174;53.486;9.568;2022-12-17T02:25:07;17.50;;;8.97;;
6282;SDS011;3174;53.486;9.568;2022-12-17T02:27:59;20.30;;;10.90;;
6282;SDS011;3174;53.486;9.568;2022-12-17T02:30:44;19.57;;;9.93;;
6282;SDS011;3174;53.486;9.568;2022-12-17T02:33:30;23.20;;;11.47;;
6282;SDS011;3174;53.486;9.568;2022-12-17T02:36:15;26.73;;;11.33;;
6282;SDS011;3174;53.486;9.568;2022-12-17T02:39:00;19.80;;;10.93;;
6282;SDS011;3174;53.486;9.568;2022-12-17T02:41:57;22.87;;;11.90;;
6282;SDS011;3174;53.486;9.568;2022-12-17T02:44:44;21.93;;;10.60;;
6282;SDS011;3174;53.486;9.568;2022-12-17T02:47:44;22.07;;;10.33;;
6282;SDS011;3174;53.486;9.568;2022-12-17T02:50:29;20.87;;;9.73;;
6282;SDS011;3174;53.486;9.568;2022-12-17T02:53:15;18.47;;;9.17;;
6282;SDS011;3174;53.486;9.568;2022-12-17T02:56:01;18.03;;;9.80;;
6282;SDS011;3174;53.486;9.568;2022-12-17T02:58:46;22.50;;;10.70;;
6282;SDS011;3174;53.486;9.568;2022-12-17T03:01:33;21.50;;;11.13;;
6282;SDS011;3174;53.486;9.568;2022-12-17T03:04:18;15.37;;;8.97;;
6282;SDS011;3174;53.486;9.568;2022-12-17T03:07:03;17.77;;;10.27;;
6282;SDS011;3174;53.486;9.568;2022-12-17T03:09:57;19.27;;;10.47;;
6282;SDS011;3174;53.486;9.568;2022-12-17T03:12:44;18.97;;;9.97;;
6282;SDS011;3174;53.486;9.568;2022-12-17T03:15:30;23.87;;;11.27;;
6282;SDS011;3174;53.486;9.568;2022-12-17T03:18:19;26.23;;;11.03;;
6282;SDS011;3174;53.486;9.568;2022-12-17T03:21:05;19.13;;;9.60;;
6282;SDS011;3174;53.486;9.568;2022-12-17T03:23:50;21.10;;;10.93;;
6282;SDS011;3174;53.486;9.568;2022-12-17T03:26:35;19.00;;;8.97;;
6282;SDS011;3174;53.486;9.568;2022-12-17T03:29:21;16.53;;;9.70;;
6282;SDS011;3174;53.486;9.568;2022-12-17T03:32:06;20.30;;;9.23;;
6282;SDS011;3174;53.486;9.568;2022-12-17T03:34:53;15.57;;;9.20;;
6282;SDS011;3174;53.486;9.568;2022-12-17T03:37:39;15.40;;;9.27;;
6282;SDS011;3174;53.486;9.568;2022-12-17T03:40:24;18.23;;;8.97;;
6282;SDS011;3174;53.486;9.568;2022-12-17T03:43:10;17.70;;;8.87;;
6282;SDS011;3174;53.486;9.568;2022-12-17T03:45:55;16.13;;;8.43;;
6282;SDS011;3174;53.486;9.568;2022-12-17T03:48:41;21.80;;;9.70;;
6282;SDS011;3174;53.486;9.568;2022-12-17T03:51:27;16.03;;;9.23;;
6282;SDS011;3174;53.486;9.568;2022-12-17T03:54:13;18.13;;;9.23;;
6282;SDS011;3174;53.486;9.568;2022-12-17T03:56:58;20.87;;;10.20;;
6282;SDS011;3174;53.486;9.568;2022-12-17T03:59:44;18.33;;;8.93;;
6282;SDS011;3174;53.486;9.568;2022-12-17T04:02:29;17.73;;;9.63;;
6282;SDS011;3174;53.486;9.568;2022-12-17T04:05:15;17.67;;;9.63;;
6282;SDS011;3174;53.486;9.568;2022-12-17T04:08:01;21.80;;;10.23;;
6282;SDS011;3174;53.486;9.568;2022-12-17T04:10:47;15.83;;;9.30;;
6282;SDS011;3174;53.486;9.568;2022-12-17T04:13:32;20.27;;;10.10;;
6282;SDS011;3174;53.486;9.568;2022-12-17T04:16:17;23.07;;;10.60;;
6282;SDS011;3174;53.486;9.568;2022-12-17T04:19:04;19.00;;;10.23;;
6282;SDS011;3174;53.486;9.568;2022-12-17T04:21:58;18.13;;;10.07;;
6282;SDS011;3174;53.486;9.568;2022-12-17T04:24:45;14.00;;;7.80;;
6282;SDS011;3174;53.486;9.568;2022-12-17T04:27:30;15.40;;;9.47;;
6282;SDS011;3174;53.486;9.568;2022-12-17T04:30:16;19.10;;;8.73;;
6282;SDS011;3174;53.486;9.568;2022-12-17T04:33:01;20.17;;;8.93;;
6282;SDS011;3174;53.486;9.568;2022-12-17T04:35:46;12.40;;;7.83;;
6282;SDS011;3174;53.486;9.568;2022-12-17T04:38:32;17.23;;;7.73;;
6282;SDS011;3174;53.486;9.568;2022-12-17T04:41:18;14.10;;;8.73;;
6282;SDS011;3174;53.486;9.568;2022-12-17T04:44:04;13.63;;;7.83;;
6282;SDS011;3174;53.486;9.568;2022-12-17T04:46:50;13.77;;;7.83;;
6282;SDS011;3174;53.486;9.568;2022-12-17T04:49:35;13.63;;;7.43;;
6282;SDS011;3174;53.486;9.568;2022-12-17T04:52:20;17.57;;;9.53;;
6282;SDS011;3174;53.486;9.568;2022-12-17T04:55:06;17.77;;;8.43;;
6282;SDS011;3174;53.486;9.568;2022-12-17T04:57:53;17.03;;;7.73;;
6282;SDS011;3174;53.486;9.568;2022-12-17T05:00:38;17.63;;;7.40;;
6282;SDS011;3174;53.486;9.568;2022-12-17T05:03:24;21.57;;;8.80;;
6282;SDS011;3174;53.486;9.568;2022-12-17T05:06:09;15.90;;;7.90;;
6282;SDS011;3174;53.486;9.568;2022-12-17T05:08:54;14.00;;;6.83;;
6282;SDS011;3174;53.486;9.568;2022-12-17T05:11:40;15.87;;;8.27;;
6282;SDS011;3174;53.486;9.568;2022-12-17T05:14:26;16.60;;;7.07;;
6282;SDS011;3174;53.486;9.568;2022-12-17T05:17:12;17.70;;;8.70;;
6282;SDS011;3174;53.486;9.568;2022-12-17T05:19:57;20.63;;;8.87;;
6282;SDS011;3174;53.486;9.568;2022-12-17T05:22:43;16.33;;;8.13;;
6282;SDS011;3174;53.486;9.568;2022-12-17T05:25:28;18.97;;;9.70;;
6282;SDS011;3174;53.486;9.568;2022-12-17T05:28:13;17.27;;;9.57;;
6282;SDS011;3174;53.486;9.568;2022-12-17T05:31:00;23.47;;;9.73;;
6282;SDS011;3174;53.486;9.568;2022-12-17T05:33:46;14.07;;;7.30;;
6282;SDS011;3174;53.486;9.568;2022-12-17T05:36:31;20.33;;;10.70;;
6282;SDS011;3174;53.486;9.568;2022-12-17T05:39:28;19.07;;;9.03;;
6282;SDS011;3174;53.486;9.568;2022-12-17T05:42:13;19.83;;;9.73;;
6282;SDS011;3174;53.486;9.568;2022-12-17T05:44:59;16.77;;;9.70;;
6282;SDS011;3174;53.486;9.568;2022-12-17T05:47:45;16.93;;;9.10;;
6282;SDS011;3174;53.486;9.568;2022-12-17T05:50:31;21.90;;;9.43;;
6282;SDS011;3174;53.486;9.568;2022-12-17T05:53:16;21.93;;;11.43;;
6282;SDS011;3174;53.486;9.568;2022-12-17T05:56:02;21.90;;;10.30;;
6282;SDS011;3174;53.486;9.568;2022-12-17T05:58:48;14.60;;;8.90;;
6282;SDS011;3174;53.486;9.568;2022-12-17T06:01:33;20.20;;;9.93;;
6282;SDS011;3174;53.486;9.568;2022-12-17T06:04:20;24.50;;;10.43;;
6282;SDS011;3174;53.486;9.568;2022-12-17T06:07:05;15.63;;;9.47;;
6282;SDS011;3174;53.486;9.568;2022-12-17T06:09:51;19.57;;;10.67;;
6282;SDS011;3174;53.486;9.568;2022-12-17T06:12:53;22.10;;;10.43;;
6282;SDS011;3174;53.486;9.568;2022-12-17T06:15:39;18.70;;;11.80;;
6282;SDS011;3174;53.486;9.568;2022-12-17T06:18:30;20.10;;;10.23;;
6282;SDS011;3174;53.486;9.568;2022-12-17T06:21:16;22.77;;;11.00;;
6282;SDS011;3174;53.486;9.568;2022-12-17T06:24:02;24.13;;;10.87;;
6282;SDS011;3174;53.486;9.568;2022-12-17T06:26:48;20.87;;;9.43;;
6282;SDS011;3174;53.486;9.568;2022-12-17T06:29:33;22.20;;;10.60;;
6282;SDS011;3174;53.486;9.568;2022-12-17T06:32:19;21.47;;;10.07;;
6282;SDS011;3174;53.486;9.568;2022-12-17T06:35:04;19.77;;;9.40;;
6282;SDS011;3174;53.486;9.568;2022-12-17T06:37:57;16.50;;;9.97;;
6282;SDS011;3174;53.486;9.568;2022-12-17T06:40:39;20.07;;;10.13;;
6282;SDS011;3174;53.486;9.568;2022-12-17T06:43:25;21.67;;;9.13;;
6282;SDS011;3174;53.486;9.568;2022-12-17T06:46:10;19.80;;;10.87;;
6282;SDS011;3174;53.486;9.568;2022-12-17T06:48:56;17.87;;;8.37;;
6282;SDS011;3174;53.486;9.568;2022-12-17T06:51:41;18.57;;;9.23;;
6282;SDS011;3174;53.486;9.568;2022-12-17T06:54:28;17.23;;;9.13;;
6282;SDS011;3174;53.486;9.568;2022-12-17T06:57:13;23.40;;;11.97;;
6282;SDS011;3174;53.486;9.568;2022-12-17T07:00:06;18.30;;;9.00;;
6282;SDS011;3174;53.486;9.568;2022-12-17T07:02:53;24.17;;;9.57;;
6282;SDS011;3174;53.486;9.568;2022-12-17T07:05:40;18.30;;;8.17;;
6282;SDS011;3174;53.486;9.568;2022-12-17T07:08:40;22.97;;;10.10;;
6282;SDS011;3174;53.486;9.568;2022-12-17T07:11:26;19.70;;;9.37;;
6282;SDS011;3174;53.486;9.568;2022-12-17T07:14:12;20.40;;;9.70;;
6282;SDS011;3174;53.486;9.568;2022-12-17T07:16:57;16.73;;;8.07;;
6282;SDS011;3174;53.486;9.568;2022-12-17T07:19:42;14.83;;;8.13;;
6282;SDS011;3174;53.486;9.568;2022-12-17T07:22:28;18.27;;;9.83;;
6282;SDS011;3174;53.486;9.568;2022-12-17T07:25:13;15.17;;;9.03;;
6282;SDS011;3174;53.486;9.568;2022-12-17T07:28:00;20.67;;;9.10;;
6282;SDS011;3174;53.486;9.568;2022-12-17T07:30:46;19.63;;;9.63;;
6282;SDS011;3174;53.486;9.568;2022-12-17T07:33:31;21.50;;;10.17;;
6282;SDS011;3174;53.486;9.568;2022-12-17T07:36:16;28.37;;;11.10;;
6282;SDS011;3174;53.486;9.568;2022-12-17T07:39:02;19.70;;;8.87;;
6282;SDS011;3174;53.486;9.568;2022-12-17T07:41:47;23.83;;;12.07;;
6282;SDS011;3174;53.486;9.568;2022-12-17T07:44:34;16.70;;;10.13;;
6282;SDS011;3174;53.486;9.568;2022-12-17T07:47:28;19.60;;;10.60;;
6282;SDS011;3174;53.486;9.568;2022-12-17T07:50:13;20.40;;;10.57;;
6282;SDS011;3174;53.486;9.568;2022-12-17T07:52:59;20.00;;;9.40;;
6282;SDS011;3174;53.486;9.568;2022-12-17T07:55:44;21.67;;;9.53;;
6282;SDS011;3174;53.486;9.568;2022-12-17T07:58:30;23.23;;;8.97;;
6282;SDS011;3174;53.486;9.568;2022-12-17T08:01:16;18.83;;;10.00;;
6282;SDS011;3174;53.486;9.568;2022-12-17T08:04:02;19.10;;;9.70;;
6282;SDS011;3174;53.486;9.568;2022-12-17T08:06:49;16.43;;;9.80;;
6282;SDS011;3174;53.486;9.568;2022-12-17T08:09:39;21.30;;;10.67;;
6282;SDS011;3174;53.486;9.568;2022-12-17T08:12:24;21.33;;;10.97;;
6282;SDS011;3174;53.486;9.568;2022-12-17T08:15:10;22.87;;;10.13;;
6282;SDS011;3174;53.486;9.568;2022-12-17T08:18:00;18.13;;;9.47;;
6282;SDS011;3174;53.486;9.568;2022-12-17T08:20:51;21.30;;;10.60;;
6282;SDS011;3174;53.486;9.568;2022-12-17T08:23:37;23.20;;;11.23;;
6282;SDS011;3174;53.486;9.568;2022-12-17T08:26:22;22.43;;;10.80;;
6282;SDS011;3174;53.486;9.568;2022-12-17T08:29:13;22.67;;;11.33;;
6282;SDS011;3174;53.486;9.568;2022-12-17T08:31:58;18.73;;;9.40;;
6282;SDS011;3174;53.486;9.568;2022-12-17T08:34:44;20.97;;;12.20;;
6282;SDS011;3174;53.486;9.568;2022-12-17T08:37:30;20.80;;;11.70;;
6282;SDS011;3174;53.486;9.568;2022-12-17T08:40:15;17.83;;;9.33;;
6282;SDS011;3174;53.486;9.568;2022-12-17T08:43:01;23.73;;;11.63;;
6282;SDS011;3174;53.486;9.568;2022-12-17T08:45:47;21.10;;;12.17;;
6282;SDS011;3174;53.486;9.568;2022-12-17T08:48:33;18.93;;;9.60;;
6282;SDS011;3174;53.486;9.568;2022-12-17T08:51:20;26.17;;;14.00;;
6282;SDS011;3174;53.486;9.568;2022-12-17T08:54:05;29.27;;;13.80;;
6282;SDS011;3174;53.486;9.568;2022-12-17T08:56:51;29.13;;;13.83;;
6282;SDS011;3174;53.486;9.568;2022-12-17T08:59:36;29.43;;;13.23;;
6282;SDS011;3174;53.486;9.568;2022-12-17T09:02:21;21.60;;;11.50;;
6282;SDS011;3174;53.486;9.568;2022-12-17T09:05:07;21.67;;;12.53;;
6282;SDS011;3174;53.486;9.568;2022-12-17T09:07:58;32.00;;;14.77;;
6282;SDS011;3174;53.486;9.568;2022-12-17T09:10:44;22.93;;;10.40;;
6282;SDS011;3174;53.486;9.568;2022-12-17T09:13:29;22.57;;;11.53;;
6282;SDS011;3174;53.486;9.568;2022-12-17T09:16:14;23.03;;;10.57;;
6282;SDS011;3174;53.486;9.568;2022-12-17T09:19:00;27.60;;;13.67;;
6282;SDS011;3174;53.486;9.568;2022-12-17T09:21:45;23.83;;;12.17;;
6282;SDS011;3174;53.486;9.568;2022-12-17T09:24:32;21.13;;;10.23;;
6282;SDS011;3174;53.486;9.568;2022-12-17T09:27:17;21.03;;;11.20;;
6282;SDS011;3174;53.486;9.568;2022-12-17T09:30:03;20.13;;;10.17;;
6282;SDS011;3174;53.486;9.568;2022-12-17T09:32:49;31.57;;;10.77;;
6282;SDS011;3174;53.486;9.568;2022-12-17T09:35:35;25.57;;;11.67;;
6282;SDS011;3174;53.486;9.568;2022-12-17T09:38:21;23.37;;;11.13;;
6282;SDS011;3174;53.486;9.568;2022-12-17T09:41:12;29.10;;;13.70;;
6282;SDS011;3174;53.486;9.568;2022-12-17T09:44:04;30.77;;;13.10;;
6282;SDS011;3174;53.486;9.568;2022-12-17T09:46:52;26.57;;;12.07;;
6282;SDS011;3174;53.486;9.568;2022-12-17T09:49:42;26.70;;;11.60;;
6282;SDS011;3174;53.486;9.568;2022-12-17T09:52:28;20.87;;;9.20;;
6282;SDS011;3174;53.486;9.568;2022-12-17T09:55:17;27.33;;;12.97;;
6282;SDS011;3174;53.486;9.568;2022-12-17T09:58:08;32.93;;;13.47;;
6282;SDS011;3174;53.486;9.568;2022-12-17T10:01:05;18.60;;;10.40;;
6282;SDS011;3174;53.486;9.568;2022-12-17T10:03:53;22.17;;;12.23;;
6282;SDS011;3174;53.486;9.568;2022-12-17T10:06:38;25.50;;;11.93;;
6282;SDS011;3174;53.486;9.568;2022-12-17T10:09:24;21.53;;;11.30;;
6282;SDS011;3174;53.486;9.568;2022-12-17T10:12:12;25.00;;;11.63;;
6282;SDS011;3174;53.486;9.568;2022-12-17T10:15:00;27.37;;;13.47;;
6282;SDS011;3174;53.486;9.568;2022-12-17T10:17:46;24.17;;;11.13;;
6282;SDS011;3174;53.486;9.568;2022-12-17T10:20:32;30.10;;;14.40;;
6282;SDS011;3174;53.486;9.568;2022-12-17T10:23:23;31.47;;;13.73;;
6282;SDS011;3174;53.486;9.568;2022-12-17T10:26:12;26.47;;;14.13;;
6282;SDS011;3174;53.486;9.568;2022-12-17T10:29:01;28.90;;;13.17;;
6282;SDS011;3174;53.486;9.568;2022-12-17T10:31:49;21.90;;;11.07;;
6282;SDS011;3174;53.486;9.568;2022-12-17T10:34:35;22.30;;;13.50;;
6282;SDS011;3174;53.486;9.568;2022-12-17T10:37:30;20.13;;;11.60;;
6282;SDS011;3174;53.486;9.568;2022-12-17T10:40:18;32.83;;;15.23;;
6282;SDS011;3174;53.486;9.568;2022-12-17T10:43:20;20.83;;;12.97;;
6282;SDS011;3174;53.486;9.568;2022-12-17T10:46:10;23.27;;;11.77;;
6282;SDS011;3174;53.486;9.568;2022-12-17T10:49:04;25.17;;;12.80;;
6282;SDS011;3174;53.486;9.568;2022-12-17T10:51:57;21.37;;;11.87;;
6282;SDS011;3174;53.486;9.568;2022-12-17T10:54:42;31.40;;;14.23;;
6282;SDS011;3174;53.486;9.568;2022-12-17T10:57:29;25.53;;;12.10;;
6282;SDS011;3174;53.486;9.568;2022-12-17T11:00:21;21.87;;;11.63;;
6282;SDS011;3174;53.486;9.568;2022-12-17T11:03:28;27.60;;;12.87;;
6282;SDS011;3174;53.486;9.568;2022-12-17T11:06:17;18.37;;;10.20;;
6282;SDS011;3174;53.486;9.568;2022-12-17T11:09:10;17.73;;;11.30;;
6282;SDS011;3174;53.486;9.568;2022-12-17T11:12:01;16.80;;;10.30;;
6282;SDS011;3174;53.486;9.568;2022-12-17T11:14:56;25.53;;;12.30;;
6282;SDS011;3174;53.486;9.568;2022-12-17T11:17:44;26.50;;;11.23;;
6282;SDS011;3174;53.486;9.568;2022-12-17T11:20:39;20.33;;;9.50;;
6282;SDS011;3174;53.486;9.568;2022-12-17T11:23:30;27.03;;;10.80;;
6282;SDS011;3174;53.486;9.568;2022-12-17T11:26:16;15.20;;;8.87;;
6282;SDS011;3174;53.486;9.568;2022-12-17T11:29:03;19.73;;;9.87;;
6282;SDS011;3174;53.486;9.568;2022-12-17T11:31:54;20.80;;;9.77;;
6282;SDS011;3174;53.486;9.568;2022-12-17T11:34:51;23.03;;;10.63;;
6282;SDS011;3174;53.486;9.568;2022-12-17T11:37:44;20.87;;;10.00;;
6282;SDS011;3174;53.486;9.568;2022-12-17T11:40:38;18.10;;;9.37;;
6282;SDS011;3174;53.486;9.568;2022-12-17T11:43:27;20.63;;;10.53;;
6282;SDS011;3174;53.486;9.568;2022-12-17T11:46:19;19.07;;;10.77;;
6282;SDS011;3174;53.486;9.568;2022-12-17T11:49:13;16.03;;;8.13;;
6282;SDS011;3174;53.486;9.568;2022-12-17T11:52:04;19.77;;;9.03;;
6282;SDS011;3174;53.486;9.568;2022-12-17T11:54:55;18.93;;;9.63;;
6282;SDS011;3174;53.486;9.568;2022-12-17T11:57:46;14.57;;;9.37;;
6282;SDS011;3174;53.486;9.568;2022-12-17T12:00:38;17.10;;;9.03;;
6282;SDS011;3174;53.486;9.568;2022-12-17T12:03:28;15.87;;;8.47;;
6282;SDS011;3174;53.486;9.568;2022-12-17T12:06:22;15.80;;;7.73;;
6282;SDS011;3174;53.486;9.568;2022-12-17T12:09:16;18.63;;;8.50;;
6282;SDS011;3174;53.486;9.568;2022-12-17T12:12:06;16.97;;;9.67;;
6282;SDS011;3174;53.486;9.568;2022-12-17T12:15:01;17.27;;;9.07;;
6282;SDS011;3174;53.486;9.568;2022-12-17T12:17:52;17.17;;;9.33;;
6282;SDS011;3174;53.486;9.568;2022-12-17T12:20:44;17.27;;;8.80;;
6282;SDS011;3174;53.486;9.568;2022-12-17T12:23:41;18.27;;;8.53;;
6282;SDS011;3174;53.486;9.568;2022-12-17T12:26:36;14.57;;;8.13;;
6282;SDS011;3174;53.486;9.568;2022-12-17T12:29:38;21.60;;;10.50;;
6282;SDS011;3174;53.486;9.568;2022-12-17T12:32:30;16.10;;;8.33;;
6282;SDS011;3174;53.486;9.568;2022-12-17T12:35:20;13.33;;;7.33;;
6282;SDS011;3174;53.486;9.568;2022-12-17T12:38:09;18.07;;;8.63;;
6282;SDS011;3174;53.486;9.568;2022-12-17T12:41:01;17.67;;;8.13;;
6282;SDS011;3174;53.486;9.568;2022-12-17T12:43:51;16.77;;;8.43;;
6282;SDS011;3174;53.486;9.568;2022-12-17T12:46:40;14.57;;;8.47;;
6282;SDS011;3174;53.486;9.568;2022-12-17T12:49:30;16.20;;;7.87;;
6282;SDS011;3174;53.486;9.568;2022-12-17T12:52:20;14.57;;;7.90;;
6282;SDS011;3174;53.486;9.568;2022-12-17T12:55:07;11.43;;;7.60;;
6282;SDS011;3174;53.486;9.568;2022-12-17T12:57:56;16.07;;;8.33;;
6282;SDS011;3174;53.486;9.568;2022-12-17T13:00:52;15.03;;;8.83;;
6282;SDS011;3174;53.486;9.568;2022-12-17T13:03:39;14.63;;;9.03;;
6282;SDS011;3174;53.486;9.568;2022-12-17T13:06:39;16.07;;;8.10;;
6282;SDS011;3174;53.486;9.568;2022-12-17T13:09:19;18.70;;;7.70;;
6282;SDS011;3174;53.486;9.568;2022-12-17T13:12:09;14.87;;;8.17;;
6282;SDS011;3174;53.486;9.568;2022-12-17T13:14:55;19.67;;;7.73;;
6282;SDS011;3174;53.486;9.568;2022-12-17T13:17:31;18.00;;;8.40;;
6282;SDS011;3174;53.486;9.568;2022-12-17T13:20:03;17.97;;;9.10;;
6282;SDS011;3174;53.486;9.568;2022-12-17T13:22:50;15.90;;;8.40;;
6282;SDS011;3174;53.486;9.568;2022-12-17T13:25:20;13.87;;;8.63;;
6282;SDS011;3174;53.486;9.568;2022-12-17T13:27:49;18.97;;;8.90;;
6282;SDS011;3174;53.486;9.568;2022-12-17T13:30:18;17.17;;;8.63;;
6282;SDS011;3174;53.486;9.568;2022-12-17T13:32:52;17.90;;;9.60;;
6282;SDS011;3174;53.486;9.568;2022-12-17T13:35:25;15.07;;;8.27;;
6282;SDS011;3174;53.486;9.568;2022-12-17T13:38:00;15.30;;;9.07;;
6282;SDS011;3174;53.486;9.568;2022-12-17T13:40:39;15.50;;;8.93;;
6282;SDS011;3174;53.486;9.568;2022-12-17T13:43:17;16.50;;;8.37;;
6282;SDS011;3174;53.486;9.568;2022-12-17T13:45:46;16.93;;;9.90;;
6282;SDS011;3174;53.486;9.568;2022-12-17T13:48:19;13.70;;;8.40;;
6282;SDS011;3174;53.486;9.568;2022-12-17T13:50:54;19.37;;;9.47;;
6282;SDS011;3174;53.486;9.568;2022-12-17T13:53:26;15.43;;;8.47;;
6282;SDS011;3174;53.486;9.568;2022-12-17T13:55:56;20.70;;;9.00;;
6282;SDS011;3174;53.486;9.568;2022-12-17T13:58:25;15.83;;;9.00;;
6282;SDS011;3174;53.486;9.568;2022-12-17T14:01:04;23.33;;;10.70;;
6282;SDS011;3174;53.486;9.568;2022-12-17T14:03:33;18.90;;;9.67;;
6282;SDS011;3174;53.486;9.568;2022-12-17T14:06:22;15.97;;;8.73;;
6282;SDS011;3174;53.486;9.568;2022-12-17T14:08:52;20.70;;;8.40;;
6282;SDS011;3174;53.486;9.568;2022-12-17T14:11:21;18.67;;;9.53;;
6282;SDS011;3174;53.486;9.568;2022-12-17T14:14:08;17.60;;;8.33;;
6282;SDS011;3174;53.486;9.568;2022-12-17T14:16:39;22.47;;;9.40;;
6282;SDS011;3174;53.486;9.568;2022-12-17T14:19:14;21.17;;;9.57;;
6282;SDS011;3174;53.486;9.568;2022-12-17T14:21:42;21.87;;;9.53;;
6282;SDS011;3174;53.486;9.568;2022-12-17T14:24:12;16.43;;;9.00;;
6282;SDS011;3174;53.486;9.568;2022-12-17T14:26:47;17.63;;;8.50;;
6282;SDS011;3174;53.486;9.568;2022-12-17T14:29:20;19.63;;;9.07;;
6282;SDS011;3174;53.486;9.568;2022-12-17T14:31:52;18.17;;;9.43;;
6282;SDS011;3174;53.486;9.568;2022-12-17T14:34:21;17.50;;;9.60;;
6282;SDS011;3174;53.486;9.568;2022-12-17T14:36:52;17.67;;;8.50;;
6282;SDS011;3174;53.486;9.568;2022-12-17T14:39:25;19.73;;;8.97;;
6282;SDS011;3174;53.486;9.568;2022-12-17T14:41:54;14.50;;;8.13;;
6282;SDS011;3174;53.486;9.568;2022-12-17T14:44:48;21.00;;;9.50;;
6282;SDS011;3174;53.486;9.568;2022-12-17T14:47:19;19.00;;;9.87;;
6282;SDS011;3174;53.486;9.568;2022-12-17T14:49:59;20.87;;;10.27;;
6282;SDS011;3174;53.486;9.568;2022-12-17T14:52:40;17.33;;;8.60;;
6282;SDS011;3174;53.486;9.568;2022-12-17T14:58:16;18.33;;;9.27;;
6282;SDS011;3174;53.486;9.568;2022-12-17T15:00:47;18.63;;;9.57;;
6282;SDS011;3174;53.486;9.568;2022-12-17T15:03:18;18.27;;;10.10;;
6282;SDS011;3174;53.486;9.568;2022-12-17T15:05:50;17.33;;;9.23;;
6282;SDS011;3174;53.486;9.568;2022-12-17T15:08:19;21.67;;;10.40;;
6282;SDS011;3174;53.486;9.568;2022-12-17T15:10:49;23.10;;;10.97;;
6282;SDS011;3174;53.486;9.568;2022-12-17T15:13:17;23.03;;;11.10;;
6282;SDS011;3174;53.486;9.568;2022-12-17T15:15:45;22.47;;;9.93;;
6282;SDS011;3174;53.486;9.568;2022-12-17T15:18:13;20.73;;;10.37;;
6282;SDS011;3174;53.486;9.568;2022-12-17T15:20:41;20.70;;;10.17;;
6282;SDS011;3174;53.486;9.568;2022-12-17T15:23:12;24.27;;;11.27;;
6282;SDS011;3174;53.486;9.568;2022-12-17T15:25:41;19.60;;;10.90;;
6282;SDS011;3174;53.486;9.568;2022-12-17T15:28:14;22.97;;;10.80;;
6282;SDS011;3174;53.486;9.568;2022-12-17T15:30:42;25.67;;;12.37;;
6282;SDS011;3174;53.486;9.568;2022-12-17T15:33:10;19.93;;;11.27;;
6282;SDS011;3174;53.486;9.568;2022-12-17T15:35:39;24.10;;;11.63;;
6282;SDS011;3174;53.486;9.568;2022-12-17T15:38:07;23.23;;;12.07;;
6282;SDS011;3174;53.486;9.568;2022-12-17T15:40:36;23.47;;;11.20;;
6282;SDS011;3174;53.486;9.568;2022-12-17T15:43:04;22.17;;;10.93;;
6282;SDS011;3174;53.486;9.568;2022-12-17T15:45:39;19.87;;;10.27;;
6282;SDS011;3174;53.486;9.568;2022-12-17T15:48:08;26.70;;;10.00;;
6282;SDS011;3174;53.486;9.568;2022-12-17T15:50:37;21.40;;;10.87;;
6282;SDS011;3174;53.486;9.568;2022-12-17T15:53:05;21.87;;;11.97;;
6282;SDS011;3174;53.486;9.568;2022-12-17T15:55:34;20.33;;;12.03;;
6282;SDS011;3174;53.486;9.568;2022-12-17T15:58:02;20.93;;;12.17;;
6282;SDS011;3174;53.486;9.568;2022-12-17T16:00:31;22.53;;;12.60;;
6282;SDS011;3174;53.486;9.568;2022-12-17T16:03:00;22.70;;;12.73;;
6282;SDS011;3174;53.486;9.568;2022-12-17T16:05:29;22.67;;;11.93;;
6282;SDS011;3174;53.486;9.568;2022-12-17T16:07:57;28.50;;;12.30;;
6282;SDS011;3174;53.486;9.568;2022-12-17T16:10:28;28.43;;;14.63;;
6282;SDS011;3174;53.486;9.568;2022-12-17T16:12:56;22.63;;;12.07;;
6282;SDS011;3174;53.486;9.568;2022-12-17T16:15:24;22.77;;;11.20;;
6282;SDS011;3174;53.486;9.568;2022-12-17T16:17:52;18.77;;;10.17;;
6282;SDS011;3174;53.486;9.568;2022-12-17T16:20:21;26.07;;;13.00;;
6282;SDS011;3174;53.486;9.568;2022-12-17T16:22:50;22.77;;;12.33;;
6282;SDS011;3174;53.486;9.568;2022-12-17T16:25:18;25.83;;;12.77;;
6282;SDS011;3174;53.486;9.568;2022-12-17T16:27:46;22.63;;;11.53;;
6282;SDS011;3174;53.486;9.568;2022-12-17T16:30:14;22.93;;;11.30;;
6282;SDS011;3174;53.486;9.568;2022-12-17T16:32:42;21.37;;;11.27;;
6282;SDS011;3174;53.486;9.568;2022-12-17T16:35:10;22.17;;;11.37;;
6282;SDS011;3174;53.486;9.568;2022-12-17T16:37:40;27.47;;;11.37;;
6282;SDS011;3174;53.486;9.568;2022-12-17T16:40:09;20.93;;;11.87;;
6282;SDS011;3174;53.486;9.568;2022-12-17T16:42:37;17.70;;;9.43;;